Time;durP1;ratioP1;P1;durP2;ratioP2;P2;SDS_P1;SDS_P2;PMS_P1;PMS_P2;Temp;Humidity;BMP_temperature;BMP_pressure;BME280_temperature;BME280_humidity;BME280_pressure;Samples;Min_cycle;Max_cycle;Signal;HPM_P1;HPM_P2
2022/08/14 00:01:43;;;;;;;5.03;4.05;;;;;;;25.26;42.86;99649.47;5020777;28;20065;-83
2022/08/14 00:04:23;;;;;;;7.15;4.60;;;;;;;25.24;43.17;99651.50;5021292;28;20052;-83
2022/08/14 00:07:09;;;;;;;5.78;4.63;;;;;;;25.22;43.27;99640.06;5022139;28;20058;-83
2022/08/14 00:09:36;;;;;;;5.40;4.50;;;;;;;25.18;43.34;99634.22;5021333;28;20049;-83
2022/08/14 00:12:23;;;;;;;8.82;4.60;;;;;;;25.17;43.59;99645.19;5022162;28;20289;-85
2022/08/14 00:15:00;;;;;;;5.05;4.22;;;;;;;25.14;43.15;99637.47;5022538;28;20165;-84
2022/08/14 00:17:28;;;;;;;5.43;4.63;;;;;;;25.11;43.48;99638.69;5022440;28;20054;-85
2022/08/14 00:19:56;;;;;;;5.38;4.30;;;;;;;25.09;43.65;99632.66;5022615;28;20057;-85
2022/08/14 00:22:25;;;;;;;5.30;4.80;;;;;;;25.06;43.62;99630.34;5023308;28;20077;-84
2022/08/14 00:25:11;;;;;;;4.32;3.92;;;;;;;25.04;43.63;99632.41;5023365;28;20045;-85
2022/08/14 00:27:40;;;;;;;5.45;4.78;;;;;;;25.00;44.02;99631.91;5005483;28;20058;-86
2022/08/14 00:30:09;;;;;;;7.07;4.70;;;;;;;24.98;44.39;99633.97;5024577;28;20050;-86
2022/08/14 00:32:40;;;;;;;5.38;3.95;;;;;;;24.97;44.18;99624.22;5022872;28;20136;-83
2022/08/14 00:35:37;;;;;;;5.43;4.43;;;;;;;24.95;44.43;99620.88;5023952;28;20054;-86
2022/08/14 00:38:23;;;;;;;4.75;4.22;;;;;;;24.93;44.42;99621.03;5025523;28;20303;-85
2022/08/14 00:40:52;;;;;;;5.20;4.22;;;;;;;24.90;44.21;99613.34;5026825;28;20117;-84
2022/08/14 00:43:20;;;;;;;7.18;4.70;;;;;;;24.86;44.17;99620.13;5027437;28;20046;-85
2022/08/14 00:45:49;;;;;;;5.28;4.63;;;;;;;24.82;44.22;99619.63;5028209;28;20548;-85
2022/08/14 00:48:23;;;;;;;5.28;4.72;;;;;;;24.76;44.85;99623.06;5028720;28;20054;-85
2022/08/14 00:51:07;;;;;;;4.97;4.22;;;;;;;24.68;45.09;99618.59;5018436;28;20053;-84
2022/08/14 00:53:35;;;;;;;5.37;4.30;;;;;;;24.68;44.77;99612.38;5024774;28;20076;-84
2022/08/14 00:56:03;;;;;;;4.57;4.18;;;;;;;24.62;44.94;99611.25;5024231;28;20340;-85
2022/08/14 00:58:35;;;;;;;6.90;4.43;;;;;;;24.60;44.73;99611.44;5008212;28;20076;-85
2022/08/14 01:01:13;;;;;;;5.30;3.83;;;;;;;24.59;44.79;99604.38;5025286;28;20475;-85
2022/08/14 01:03:42;;;;;;;5.03;4.22;;;;;;;24.58;44.94;99602.72;5025730;28;20077;-86
2022/08/14 01:10:03;;;;;;;6.07;4.18;;;;;;;24.58;44.85;99594.66;5025617;28;20056;-85
2022/08/14 01:12:31;;;;;;;;;;;;;;;24.55;43.70;99589.63;5026101;28;20062;-86
2022/08/14 01:14:59;;;;;;;6.25;4.30;;;;;;;24.59;44.38;99585.53;5025855;28;19925;-86
2022/08/14 01:23:12;;;;;;;4.72;4.25;;;;;;;24.53;45.72;99580.06;5019261;28;20506;-86
2022/08/14 01:25:45;;;;;;;5.63;4.22;;;;;;;24.54;45.17;99576.34;5016836;28;20100;-85
2022/08/14 01:28:12;;;;;;;6.70;4.93;;;;;;;24.54;45.60;99570.97;5016027;28;20365;-85
2022/08/14 01:30:59;;;;;;;4.80;4.40;;;;;;;24.53;45.79;99580.06;5015984;28;20092;-82
2022/08/14 01:33:28;;;;;;;6.10;5.22;;;;;;;24.51;45.56;99572.16;5016158;28;20046;-85
2022/08/14 01:35:59;;;;;;;5.60;4.97;;;;;;;24.51;45.75;99571.34;5015410;28;20046;-85
2022/08/14 01:38:33;;;;;;;4.93;4.50;;;;;;;24.49;45.43;99568.84;5015864;28;20104;-85
2022/08/14 01:41:15;;;;;;;8.50;4.97;;;;;;;24.43;46.32;99569.56;5015211;28;20058;-83
2022/08/14 01:43:52;;;;;;;5.90;4.30;;;;;;;24.45;46.06;99570.22;5015458;28;20132;-83
2022/08/14 01:46:23;;;;;;;6.55;4.60;;;;;;;24.43;46.26;99564.19;5015459;28;20141;-84
2022/08/14 01:48:59;;;;;;;6.63;4.80;;;;;;;24.40;46.28;99561.88;5013995;28;20523;-84
2022/08/14 01:51:27;;;;;;;5.88;5.20;;;;;;;24.36;46.32;99555.19;4996077;28;20046;-85
2022/08/14 01:53:57;;;;;;;5.30;4.88;;;;;;;24.31;46.49;99553.88;5013804;28;20050;-85
2022/08/14 01:56:38;;;;;;;4.97;4.57;;;;;;;24.28;46.62;99548.88;5013236;28;20704;-86
2022/08/14 01:59:18;;;;;;;6.65;4.97;;;;;;;24.20;46.38;99548.94;5012658;28;20461;-85
2022/08/14 02:01:50;;;;;;;5.50;4.93;;;;;;;24.20;46.97;99543.56;5012882;28;20579;-83
2022/08/14 02:04:29;;;;;;;5.15;4.53;;;;;;;24.18;46.51;99538.34;5015151;28;20045;-86
2022/08/14 02:07:16;;;;;;;5.68;5.07;;;;;;;24.18;46.41;99542.91;5017053;28;20081;-86
2022/08/14 02:10:00;;;;;;;5.10;4.68;;;;;;;24.16;46.56;99542.25;5016337;28;20081;-83
2022/08/14 02:12:27;;;;;;;6.10;4.68;;;;;;;24.12;46.62;99541.78;5017451;28;20461;-85
2022/08/14 02:14:55;;;;;;;5.25;4.75;;;;;;;24.10;46.49;99535.75;5016818;28;20354;-84
2022/08/14 02:17:28;;;;;;;7.57;4.57;;;;;;;24.07;46.94;99528.03;5017017;28;20050;-84
2022/08/14 02:19:56;;;;;;;6.25;4.72;;;;;;;24.05;46.78;99525.50;5016339;28;20050;-84
2022/08/14 02:22:25;;;;;;;5.10;4.55;;;;;;;24.02;47.04;99523.19;4998886;28;20127;-86
2022/08/14 02:24:58;;;;;;;6.10;4.72;;;;;;;24.00;46.57;99525.19;5016421;28;20084;-86
2022/08/14 02:27:24;;;;;;;8.63;5.20;;;;;;;23.98;46.98;99519.19;5016719;28;20061;-86
2022/08/14 02:30:12;;;;;;;7.78;5.07;;;;;;;23.98;46.98;99515.66;5016287;28;20089;-86
2022/08/14 02:32:39;;;;;;;5.60;5.10;;;;;;;23.98;47.23;99508.44;5016253;28;20046;-86
2022/08/14 02:35:12;;;;;;;7.38;5.35;;;;;;;23.97;47.77;99514.84;5015638;28;20053;-83
2022/08/14 02:37:39;;;;;;;8.20;5.35;;;;;;;23.97;47.21;99514.84;5016271;28;20056;-85
2022/08/14 02:40:14;;;;;;;6.97;5.45;;;;;;;23.97;47.52;99512.16;5015624;28;20081;-86
2022/08/14 02:42:42;;;;;;;9.60;5.55;;;;;;;23.96;47.49;99515.84;5015830;28;20053;-82
2022/08/14 02:45:32;;;;;;;7.15;5.72;;;;;;;23.94;48.01;99524.09;5015489;28;20141;-83
2022/08/14 02:48:11;;;;;;;6.05;5.00;;;;;;;23.95;47.19;99511.47;5016731;28;20053;-85
2022/08/14 02:50:59;;;;;;;7.95;4.95;;;;;;;23.95;47.43;99508.78;5016359;28;20109;-85
2022/08/14 02:53:30;;;;;;;8.68;5.28;;;;;;;23.92;47.62;99507.31;5015568;28;20658;-84
2022/08/14 02:56:00;;;;;;;5.73;5.13;;;;;;;23.93;47.40;99505.47;5016097;28;20054;-85
2022/08/14 02:58:31;;;;;;;5.85;5.18;;;;;;;23.90;47.33;99501.28;5015352;28;20727;-86
2022/08/14 03:00:59;;;;;;;9.57;5.30;;;;;;;23.89;47.67;99496.09;5015451;28;20389;-85
2022/08/14 03:03:27;;;;;;;5.95;5.35;;;;;;;23.86;47.76;99499.13;5015434;28;20092;-82
2022/08/14 03:05:57;;;;;;;5.40;4.90;;;;;;;23.81;47.84;99497.00;5015954;28;20053;-82
2022/08/14 03:08:30;;;;;;;6.85;5.20;;;;;;;23.77;47.96;99490.31;5015649;28;20061;-82
2022/08/14 03:10:58;;;;;;;8.55;5.40;;;;;;;23.71;47.89;99486.50;5015538;28;20046;-83
2022/08/14 03:13:24;;;;;;;7.90;5.38;;;;;;;23.68;48.05;99486.84;5015180;28;20076;-83
2022/08/14 03:15:54;;;;;;;7.70;4.90;;;;;;;23.63;48.15;99482.00;5015653;28;20475;-83
2022/08/14 03:18:25;;;;;;;7.00;5.10;;;;;;;23.61;48.30;99480.50;5014938;28;20058;-82
2022/08/14 03:21:01;;;;;;;7.55;5.15;;;;;;;23.59;48.70;99482.56;5023475;28;20128;-84
2022/08/14 03:23:35;;;;;;;6.32;5.00;;;;;;;23.58;48.32;99480.88;5006579;28;20117;-83
2022/08/14 03:26:07;;;;;;;6.32;4.95;;;;;;;23.55;48.74;99482.09;5021944;28;20079;-83
2022/08/14 03:28:41;;;;;;;6.13;5.30;;;;;;;23.55;48.64;99480.22;5015213;28;20050;-83
2022/08/14 03:31:09;;;;;;;7.15;4.97;;;;;;;23.53;48.39;99478.72;4997752;28;20124;-83
2022/08/14 03:33:39;;;;;;;5.72;4.88;;;;;;;23.51;48.83;99476.22;5014814;28;20057;-82
2022/08/14 03:36:12;;;;;;;5.35;4.95;;;;;;;23.48;48.70;99471.22;5015162;28;20053;-83
2022/08/14 03:38:59;;;;;;;5.50;5.03;;;;;;;23.47;48.69;99468.72;4999886;28;20049;-82
2022/08/14 03:41:41;;;;;;;5.75;5.10;;;;;;;23.43;48.81;99468.22;5014427;28;20073;-83
2022/08/14 03:44:08;;;;;;;6.00;5.07;;;;;;;23.40;49.14;99468.59;5014908;28;20119;-83
2022/08/14 03:46:55;;;;;;;5.65;5.05;;;;;;;23.37;48.67;99466.25;5014956;28;20057;-82
2022/08/14 03:49:23;;;;;;;5.95;4.68;;;;;;;23.34;48.93;99462.09;5015246;28;20085;-84
2022/08/14 03:51:58;;;;;;;5.82;5.32;;;;;;;23.34;48.94;99461.25;5015069;28;20107;-84
2022/08/14 03:54:27;;;;;;;5.70;4.78;;;;;;;23.32;49.16;99452.50;4998044;28;20050;-83
2022/08/14 03:56:59;;;;;;;5.88;5.38;;;;;;;23.30;49.17;99458.88;5014873;28;20053;-83
2022/08/14 03:59:28;;;;;;;7.20;5.38;;;;;;;23.29;49.23;99451.03;5013086;28;20050;-84
2022/08/14 04:01:55;;;;;;;6.57;5.13;;;;;;;23.28;49.38;99450.16;5014713;28;20146;-84
2022/08/14 04:04:31;;;;;;;5.55;5.05;;;;;;;23.27;49.40;99455.72;5014922;28;20462;-83
2022/08/14 04:06:59;;;;;;;6.00;5.40;;;;;;;23.25;49.26;99449.69;4997290;28;20049;-82
2022/08/14 04:09:26;;;;;;;7.63;5.38;;;;;;;23.22;49.57;99448.22;4997298;28;20118;-83
2022/08/14 04:11:53;;;;;;;6.20;5.60;;;;;;;23.19;49.65;99440.50;5014654;28;20062;-84
2022/08/14 04:14:22;;;;;;;5.85;4.90;;;;;;;23.17;49.61;99447.88;5015220;28;20050;-83
2022/08/14 04:16:49;;;;;;;7.13;5.15;;;;;;;23.14;49.90;99448.25;5013435;28;20084;-83
2022/08/14 04:19:19;;;;;;;5.80;5.13;;;;;;;23.12;49.51;99450.28;4996355;28;20053;-83
2022/08/14 04:21:48;;;;;;;5.38;4.88;;;;;;;23.09;49.79;99440.72;5014278;28;20057;-86
2022/08/14 04:24:32;;;;;;;6.90;5.03;;;;;;;23.08;49.96;99443.59;5014019;28;20057;-83
2022/08/14 04:27:09;;;;;;;6.28;5.50;;;;;;;23.02;50.58;99437.91;4997091;28;20061;-84
2022/08/14 04:29:37;;;;;;;6.00;4.97;;;;;;;23.02;50.31;99445.97;5013357;28;20053;-84
2022/08/14 04:32:08;;;;;;;6.25;5.53;;;;;;;23.01;50.27;99438.94;5014308;28;20058;-83
2022/08/14 04:34:54;;;;;;;6.65;4.95;;;;;;;23.01;50.17;99435.41;5013807;28;20456;-83
2022/08/14 04:45:43;;;;;;;5.68;5.10;;;;;;;22.95;50.54;99428.88;5013079;28;20050;-83
2022/08/14 04:48:12;;;;;;;5.40;4.90;;;;;;;22.95;50.47;99433.44;5014695;28;20050;-83
2022/08/14 04:51:00;;;;;;;6.85;5.53;;;;;;;22.96;50.64;99437.78;5014217;28;20404;-84
2022/08/14 04:53:29;;;;;;;5.60;5.10;;;;;;;22.97;50.93;99439.47;5014340;28;20061;-84
2022/08/14 04:56:01;;;;;;;5.43;4.93;;;;;;;22.99;50.98;99440.94;5013833;28;20088;-83
2022/08/14 04:58:32;;;;;;;6.90;4.75;;;;;;;22.98;51.03;99433.06;5013796;28;20053;-83
2022/08/14 05:01:02;;;;;;;6.25;5.20;;;;;;;22.99;51.16;99434.75;5013481;28;20050;-83
2022/08/14 05:03:32;;;;;;;5.28;4.85;;;;;;;22.99;51.29;99446.31;5013790;28;20074;-84
2022/08/14 05:06:01;;;;;;;5.85;4.97;;;;;;;22.98;51.53;99444.66;5012415;28;20317;-84
2022/08/14 05:08:29;;;;;;;5.30;4.80;;;;;;;22.99;51.45;99443.63;5012799;28;20475;-83
2022/08/14 05:11:19;;;;;;;5.80;5.30;;;;;;;22.97;51.91;99443.00;5017485;28;20057;-83
2022/08/14 05:13:51;;;;;;;4.95;4.50;;;;;;;22.96;51.95;99445.84;5004232;28;20061;-86
2022/08/14 05:16:38;;;;;;;5.80;5.15;;;;;;;22.99;51.44;99443.63;5017441;28;20053;-83
2022/08/14 05:19:07;;;;;;;5.30;4.78;;;;;;;22.98;51.28;99447.34;5012788;28;20475;-84
2022/08/14 05:21:52;;;;;;;5.57;5.07;;;;;;;23.00;51.79;99450.69;5013075;28;20053;-83
2022/08/14 05:24:26;;;;;;;5.97;5.07;;;;;;;23.03;51.71;99444.13;5011814;28;20062;-83
2022/08/14 05:26:53;;;;;;;5.97;5.22;;;;;;;23.07;51.60;99447.28;5011786;28;20108;-83
2022/08/14 05:29:20;;;;;;;5.97;5.30;;;;;;;23.12;51.78;99447.59;5011148;28;20515;-83
2022/08/14 05:31:47;;;;;;;5.63;5.13;;;;;;;23.15;52.03;99440.03;5009956;28;20050;-83
2022/08/14 05:34:22;;;;;;;8.55;5.40;;;;;;;23.20;51.90;99444.84;5011683;28;20100;-84
2022/08/14 05:36:56;;;;;;;5.65;5.10;;;;;;;23.24;51.69;99443.47;5012278;28;20088;-83
2022/08/14 05:39:29;;;;;;;5.38;4.75;;;;;;;23.30;52.14;99441.94;5011755;28;20053;-83
2022/08/14 05:41:57;;;;;;;6.60;5.13;;;;;;;23.35;52.17;99436.88;5014244;28;20085;-83
2022/08/14 05:44:26;;;;;;;5.30;4.45;;;;;;;23.40;51.93;99437.19;5014175;28;20072;-83
2022/08/14 05:47:00;;;;;;;5.38;4.88;;;;;;;23.47;52.22;99431.94;5023304;28;20057;-83
2022/08/14 05:49:35;;;;;;;5.55;5.05;;;;;;;23.55;51.67;99436.41;5021826;28;20050;-82
2022/08/14 05:52:04;;;;;;;5.53;5.03;;;;;;;23.62;51.68;99436.53;5003386;28;20061;-83
2022/08/14 05:54:35;;;;;;;6.15;4.97;;;;;;;23.69;51.67;99424.03;5000058;28;20046;-83
2022/08/14 05:57:03;;;;;;;5.75;5.25;;;;;;;23.76;51.54;99424.97;5015531;28;20053;-85
2022/08/14 05:59:31;;;;;;;6.20;5.30;;;;;;;23.83;51.05;99427.75;4999023;28;20054;-85
2022/08/14 06:02:06;;;;;;;5.60;5.10;;;;;;;23.91;50.94;99426.84;5015347;28;20049;-85
2022/08/14 06:04:35;;;;;;;5.53;4.93;;;;;;;23.97;51.47;99428.81;5017427;28;20420;-84
2022/08/14 06:07:02;;;;;;;5.35;4.70;;;;;;;24.03;51.25;99428.06;5017449;28;20050;-85
2022/08/14 06:09:29;;;;;;;7.30;5.03;;;;;;;24.10;50.80;99430.88;5017693;28;20061;-84
2022/08/14 06:12:07;;;;;;;8.18;5.43;;;;;;;24.16;50.47;99430.16;5016724;28;20054;-84
2022/08/14 06:14:35;;;;;;;6.82;5.28;;;;;;;24.24;50.63;99431.91;5017918;28;20064;-84
2022/08/14 06:17:03;;;;;;;5.90;5.30;;;;;;;24.30;50.59;99430.34;5019388;28;20085;-84
2022/08/14 06:19:31;;;;;;;6.00;5.18;;;;;;;24.36;50.44;99426.06;5018364;28;20056;-85
2022/08/14 06:21:58;;;;;;;11.73;5.47;;;;;;;24.42;50.61;99420.78;5017639;28;20281;-85
2022/08/14 06:24:38;;;;;;;5.65;5.05;;;;;;;24.49;50.53;99420.03;5128204;27;20735;-60
2022/08/14 06:27:09;;;;;;;6.55;5.55;;;;;;;24.54;50.53;99409.53;5128583;28;20430;-61
2022/08/14 06:29:37;;;;;;;5.53;5.03;;;;;;;24.59;50.60;99407.94;5128121;28;20471;-61
2022/08/14 06:32:04;;;;;;;7.13;5.47;;;;;;;24.65;50.38;99409.06;5128440;28;20696;-62
2022/08/14 06:34:51;;;;;;;9.48;5.97;;;;;;;24.72;50.38;99403.75;5128114;28;20544;-61
2022/08/14 06:37:42;;;;;;;5.38;4.97;;;;;;;24.78;50.42;99413.75;5128218;28;20480;-61
2022/08/14 06:40:11;;;;;;;5.80;5.30;;;;;;;24.84;49.96;99412.19;5128263;28;20047;-61
2022/08/14 06:42:53;;;;;;;6.10;5.50;;;;;;;24.90;49.90;99422.22;5127655;28;20040;-63
2022/08/14 06:45:20;;;;;;;5.72;5.22;;;;;;;24.95;50.15;99418.94;5128345;28;20051;-62
2022/08/14 06:47:52;;;;;;;6.63;5.50;;;;;;;25.00;49.88;99413.00;5128545;28;20062;-62
2022/08/14 06:50:21;;;;;;;5.80;5.20;;;;;;;25.03;49.94;99416.13;5128100;28;20044;-62
2022/08/14 06:52:54;;;;;;;6.90;5.00;;;;;;;25.08;49.68;99402.09;5110966;28;20046;-62
2022/08/14 06:55:21;;;;;;;5.93;5.32;;;;;;;25.13;49.74;99405.06;5127897;28;20055;-62
2022/08/14 06:57:53;;;;;;;5.50;5.00;;;;;;;25.18;49.65;99413.38;5128427;28;20039;-61
2022/08/14 07:00:24;;;;;;;5.45;4.95;;;;;;;25.24;50.02;99414.47;5128203;28;20471;-61
2022/08/14 07:05:46;;;;;;;6.15;5.28;;;;;;;25.36;49.73;99401.31;5128019;28;20039;-62
2022/08/14 07:08:26;;;;;;;5.60;5.07;;;;;;;25.42;49.65;99405.91;5127909;28;20051;-62
2022/08/14 07:10:59;;;;;;;5.85;5.35;;;;;;;25.49;49.86;99408.69;5110221;28;20199;-62
2022/08/14 07:13:27;;;;;;;5.53;4.95;;;;;;;25.55;49.45;99409.75;5109570;28;20054;-62
2022/08/14 07:15:55;;;;;;;5.70;5.20;;;;;;;25.59;49.75;99401.13;5109716;28;20051;-62
2022/08/14 07:18:34;;;;;;;8.93;5.75;;;;;;;25.61;49.18;99403.63;5109492;28;20415;-62
2022/08/14 07:21:04;;;;;;;6.82;5.13;;;;;;;25.70;49.16;99399.75;5127778;28;20051;-63
2022/08/14 07:23:36;;;;;;;5.53;5.03;;;;;;;25.76;49.20;99398.16;5127576;28;20051;-61
2022/08/14 07:26:10;;;;;;;5.50;5.00;;;;;;;25.83;49.30;99401.72;5127720;28;20054;-61
2022/08/14 07:28:40;;;;;;;6.18;4.80;;;;;;;25.90;49.43;99399.06;5127797;28;20055;-64
2022/08/14 07:31:10;;;;;;;6.30;5.05;;;;;;;25.97;49.36;99401.78;5110256;28;20043;-67
2022/08/14 07:33:47;;;;;;;7.65;4.97;;;;;;;26.02;49.77;99392.09;5109637;28;20490;-68
2022/08/14 07:36:18;;;;;;;5.25;4.75;;;;;;;26.14;49.34;99397.78;5113492;28;20096;-63
2022/08/14 07:38:59;;;;;;;5.50;5.00;;;;;;;26.22;49.15;99387.84;5114213;28;20452;-61
2022/08/14 07:41:28;;;;;;;5.60;5.03;;;;;;;26.31;48.87;99388.53;5114385;28;20062;-65
2022/08/14 07:44:00;;;;;;;5.32;4.82;;;;;;;26.37;48.78;99393.13;5113823;28;20468;-62
2022/08/14 07:46:50;;;;;;;5.20;4.80;;;;;;;26.45;48.67;99392.13;5098961;28;20106;-63
2022/08/14 07:49:17;;;;;;;5.15;4.65;;;;;;;26.53;48.21;99389.25;5113452;28;20051;-62
2022/08/14 07:51:44;;;;;;;5.38;4.88;;;;;;;26.59;48.29;99391.16;5113799;28;20043;-64
2022/08/14 07:54:15;;;;;;;6.57;4.82;;;;;;;26.65;48.25;99395.72;5096263;28;20088;-63
2022/08/14 07:56:57;;;;;;;6.28;5.03;;;;;;;26.73;48.23;99393.88;5113816;28;20042;-62
2022/08/14 07:59:26;;;;;;;5.70;5.15;;;;;;;26.81;47.70;99396.41;5113400;28;20040;-61
2022/08/14 08:02:11;;;;;;;5.03;4.38;;;;;;;26.88;47.70;99397.25;5113567;28;20075;-62
2022/08/14 08:04:50;;;;;;;7.60;5.47;;;;;;;26.93;47.88;99392.09;5113543;28;20085;-63
2022/08/14 08:07:21;;;;;;;6.40;5.43;;;;;;;27.01;47.74;99395.63;5113381;28;20078;-62
2022/08/14 08:09:52;;;;;;;6.60;5.07;;;;;;;27.10;47.84;99390.88;5095065;28;20138;-61
2022/08/14 08:12:20;;;;;;;5.78;5.20;;;;;;;27.16;47.51;99387.34;5113326;28;20055;-62
2022/08/14 08:14:56;;;;;;;6.43;5.03;;;;;;;27.24;47.66;99386.34;5113733;28;20047;-62
2022/08/14 08:17:38;;;;;;;5.40;4.97;;;;;;;27.30;47.46;99383.66;5113426;28;20400;-64
2022/08/14 08:20:24;;;;;;;5.32;4.82;;;;;;;27.40;47.28;99382.41;5112971;28;20062;-63
2022/08/14 08:22:55;;;;;;;5.13;4.57;;;;;;;27.49;46.96;99381.13;5112752;28;20490;-61
2022/08/14 08:25:28;;;;;;;5.38;4.85;;;;;;;27.56;47.10;99375.72;5113088;28;20399;-62
2022/08/14 08:28:02;;;;;;;4.95;4.55;;;;;;;27.62;47.19;99372.22;5094882;28;20407;-61
2022/08/14 08:30:39;;;;;;;5.03;4.63;;;;;;;27.72;46.82;99365.56;5113418;28;20081;-62
2022/08/14 08:33:16;;;;;;;5.20;4.72;;;;;;;27.81;47.07;99367.00;5112775;28;20088;-61
2022/08/14 08:35:44;;;;;;;4.90;4.50;;;;;;;27.89;46.58;99365.94;5112790;28;20495;-61
2022/08/14 08:38:19;;;;;;;4.75;4.32;;;;;;;27.97;47.31;99360.31;5112845;28;20047;-61
2022/08/14 08:41:06;;;;;;;4.90;4.47;;;;;;;28.11;46.66;99361.09;5097538;28;20039;-61
2022/08/14 08:43:37;;;;;;;4.68;4.28;;;;;;;28.18;46.35;99353.78;5112657;28;20360;-62
2022/08/14 08:46:10;;;;;;;4.88;4.47;;;;;;;28.26;46.40;99351.91;5111957;28;20044;-62
2022/08/14 08:48:53;;;;;;;4.57;4.18;;;;;;;28.37;46.17;99343.13;5112407;28;20089;-61
2022/08/14 08:51:32;;;;;;;4.80;4.38;;;;;;;28.47;46.13;99342.66;5112692;28;20043;-63
2022/08/14 08:54:10;;;;;;;4.70;4.30;;;;;;;28.56;45.71;99335.13;5094703;28;20047;-64
2022/08/14 08:56:47;;;;;;;5.07;4.50;;;;;;;28.68;46.38;99332.53;5112650;28;20075;-61
2022/08/14 08:59:29;;;;;;;6.30;4.10;;;;;;;28.74;45.62;99332.50;5112290;28;20494;-61
2022/08/14 09:02:01;;;;;;;5.22;4.72;;;;;;;28.87;45.37;99325.34;5112511;28;20039;-60
2022/08/14 09:04:40;;;;;;;4.15;3.85;;;;;;;28.95;45.48;99330.53;5112244;28;20071;-63
2022/08/14 09:07:25;;;;;;;4.47;4.07;;;;;;;29.06;45.07;99323.56;5112474;28;20052;-62
2022/08/14 09:09:54;;;;;;;6.00;4.80;;;;;;;29.15;45.12;99318.69;5094061;28;20661;-62
2022/08/14 09:12:29;;;;;;;4.65;4.25;;;;;;;29.23;45.03;99318.41;5112334;28;20047;-61
2022/08/14 09:15:03;;;;;;;;;;;;;;;29.30;45.57;99325.66;5112938;28;20047;-61
2022/08/14 09:17:39;;;;;;;5.03;4.13;;;;;;;29.43;44.61;99322.84;5112252;28;20324;-60
2022/08/14 09:20:07;;;;;;;5.93;4.00;;;;;;;29.49;44.48;99319.22;5112223;28;20047;-60
2022/08/14 09:22:40;;;;;;;4.70;4.30;;;;;;;29.54;44.19;99313.16;5112242;28;20136;-64
2022/08/14 09:25:20;;;;;;;4.65;4.25;;;;;;;29.60;43.92;99316.88;5111544;28;20040;-63
2022/08/14 09:28:08;;;;;;;5.00;4.50;;;;;;;29.70;44.04;99319.03;5112135;28;20096;-62
2022/08/14 09:30:43;;;;;;;5.53;4.47;;;;;;;29.78;43.36;99311.44;5094252;28;20051;-61
2022/08/14 09:33:48;;;;;;;4.47;4.07;;;;;;;29.83;43.20;99312.66;5094430;28;20346;-64
2022/08/14 09:36:53;;;;;;;4.80;4.40;;;;;;;29.92;43.37;99311.28;5112390;28;20051;-62
2022/08/14 09:39:38;;;;;;;5.10;4.60;;;;;;;30.00;43.60;99315.56;5109571;28;20260;-64
2022/08/14 09:42:27;;;;;;;4.38;3.97;;;;;;;30.08;42.87;99311.75;5090180;28;20564;-61
2022/08/14 09:45:09;;;;;;;4.35;3.95;;;;;;;30.21;42.62;99308.91;5110875;28;20035;-62
2022/08/14 09:47:43;;;;;;;4.40;4.05;;;;;;;30.26;42.98;99305.47;5110664;28;20040;-61
2022/08/14 09:50:22;;;;;;;4.55;4.15;;;;;;;30.35;42.71;99303.28;5110298;28;20096;-61
2022/08/14 09:53:06;;;;;;;4.20;3.80;;;;;;;30.45;42.53;99308.97;5111297;28;20040;-61
2022/08/14 09:55:44;;;;;;;4.55;4.10;;;;;;;30.59;42.04;99293.34;5110358;28;20277;-62
2022/08/14 09:58:15;;;;;;;3.92;3.63;;;;;;;30.67;41.79;99297.59;5110734;28;20052;-63
2022/08/14 10:01:00;;;;;;;4.88;3.90;;;;;;;30.74;41.85;99292.94;5088785;28;20048;-64
2022/08/14 10:03:35;;;;;;;5.35;4.03;;;;;;;30.86;41.20;99294.81;5093359;28;20066;-62
2022/08/14 10:06:16;;;;;;;4.15;3.75;;;;;;;30.91;41.13;99287.63;5092670;28;20047;-61
2022/08/14 10:08:49;;;;;;;3.80;3.42;;;;;;;31.01;40.65;99276.19;5110286;28;20047;-62
2022/08/14 10:11:22;;;;;;;4.60;4.15;;;;;;;31.08;41.34;99281.50;5110286;28;20040;-60
2022/08/14 10:13:53;;;;;;;5.28;4.18;;;;;;;31.13;42.31;99272.66;5110932;28;20046;-60
2022/08/14 10:16:27;;;;;;;4.32;3.92;;;;;;;31.19;41.44;99271.72;5093044;28;20455;-62
2022/08/14 10:19:08;;;;;;;4.93;4.47;;;;;;;31.23;40.48;99272.91;5109908;28;20040;-61
2022/08/14 10:21:42;;;;;;;4.38;3.92;;;;;;;31.32;40.76;99271.50;5109933;28;20039;-62
2022/08/14 10:24:32;;;;;;;3.85;3.55;;;;;;;31.44;40.27;99279.66;5110456;28;20043;-63
2022/08/14 10:27:03;;;;;;;4.45;4.05;;;;;;;31.54;40.65;99273.59;5110693;28;20051;-64
2022/08/14 10:29:36;;;;;;;4.85;3.97;;;;;;;31.63;39.99;99276.81;5109632;28;20479;-61
2022/08/14 10:32:03;;;;;;;4.80;4.30;;;;;;;31.71;39.99;99265.56;5092398;28;20059;-61
2022/08/14 10:34:45;;;;;;;5.05;4.05;;;;;;;31.81;39.79;99262.19;5094541;28;20051;-61
2022/08/14 10:37:18;;;;;;;4.13;3.78;;;;;;;31.90;39.36;99253.69;5093444;28;20050;-61
2022/08/14 10:39:59;;;;;;;7.18;4.40;;;;;;;31.94;39.94;99255.69;5109265;28;20143;-62
2022/08/14 10:42:40;;;;;;;4.72;4.22;;;;;;;32.04;38.85;99260.53;5110404;28;20043;-61
2022/08/14 10:45:31;;;;;;;4.30;4.00;;;;;;;32.11;39.84;99249.47;5092869;28;20052;-64
2022/08/14 10:48:01;;;;;;;4.72;3.85;;;;;;;32.24;39.60;99243.75;5092844;28;20476;-61
2022/08/14 10:50:50;;;;;;;4.68;4.15;;;;;;;32.36;39.19;99246.41;5109325;28;20122;-62
2022/08/14 10:53:34;;;;;;;5.80;4.38;;;;;;;32.43;38.68;99250.84;5110645;28;20048;-60
2022/08/14 10:56:08;;;;;;;4.43;4.03;;;;;;;32.50;38.54;99227.88;5110766;28;20055;-62
2022/08/14 10:59:07;;;;;;;4.80;4.20;;;;;;;32.59;39.13;99220.13;5095135;28;20533;-62
2022/08/14 11:01:38;;;;;;;4.82;4.20;;;;;;;32.80;38.57;99223.16;5110595;28;20039;-60
2022/08/14 11:04:19;;;;;;;5.85;4.38;;;;;;;33.05;38.54;99218.38;5110413;28;20555;-63
2022/08/14 11:06:54;;;;;;;5.63;4.32;;;;;;;33.47;38.92;99215.16;5110679;28;20048;-61
2022/08/14 11:09:21;;;;;;;4.00;3.70;;;;;;;33.98;37.89;99213.31;5110603;28;20039;-64
2022/08/14 11:11:55;;;;;;;13.13;4.43;;;;;;;34.53;37.17;99211.38;5114596;28;20043;-61
2022/08/14 11:14:49;;;;;;;3.80;3.50;;;;;;;35.27;36.95;99221.78;5114505;28;20048;-62
2022/08/14 11:17:28;;;;;;;4.70;3.70;;;;;;;35.94;35.83;99214.94;5097377;28;20039;-63
2022/08/14 11:20:06;;;;;;;3.40;3.10;;;;;;;36.48;34.06;99210.91;5093780;28;20039;-64
2022/08/14 11:22:42;;;;;;;3.80;3.50;;;;;;;36.85;33.35;99200.78;5113404;28;20052;-63
2022/08/14 11:25:28;;;;;;;4.57;3.80;;;;;;;37.00;32.21;99193.63;5097886;28;20044;-64
2022/08/14 11:28:12;;;;;;;3.65;3.35;;;;;;;37.02;31.66;99205.97;5113718;28;20143;-61
2022/08/14 11:30:48;;;;;;;4.85;3.85;;;;;;;37.02;31.55;99199.63;5113724;28;20035;-62
2022/08/14 11:33:27;;;;;;;3.90;3.60;;;;;;;37.11;31.71;99197.16;5096361;28;20079;-63
2022/08/14 11:35:56;;;;;;;3.90;3.60;;;;;;;37.27;32.25;99185.06;5113868;28;20046;-61
2022/08/14 11:38:27;;;;;;;4.53;3.90;;;;;;;37.47;31.65;99188.81;5113521;28;20044;-61
2022/08/14 11:40:57;;;;;;;4.10;3.72;;;;;;;37.74;31.15;99170.31;5095363;28;20079;-62
2022/08/14 11:43:25;;;;;;;3.53;3.23;;;;;;;38.06;31.49;99166.25;5113883;28;20120;-62
2022/08/14 11:45:56;;;;;;;3.92;3.63;;;;;;;38.36;30.15;99167.16;5113487;28;20051;-62
2022/08/14 11:48:25;;;;;;;4.30;3.30;;;;;;;38.56;29.78;99166.13;5113420;28;20415;-61
2022/08/14 11:51:19;;;;;;;3.97;3.58;;;;;;;38.82;29.61;99165.91;5097842;28;20043;-61
2022/08/14 11:53:54;;;;;;;4.00;3.63;;;;;;;39.08;29.36;99157.41;5113383;28;20131;-61
2022/08/14 11:56:21;;;;;;;3.92;3.63;;;;;;;39.28;28.26;99163.75;5095420;28;20476;-62
2022/08/14 11:58:54;;;;;;;3.80;3.47;;;;;;;39.32;27.83;99167.53;5096060;28;20039;-62
2022/08/14 12:01:27;;;;;;;3.83;3.53;;;;;;;39.20;27.63;99158.91;5113222;28;20062;-62
2022/08/14 12:03:58;;;;;;;3.78;3.47;;;;;;;39.03;27.28;99157.44;5113283;28;20055;-61
2022/08/14 12:06:51;;;;;;;3.60;3.35;;;;;;;38.84;28.64;99149.13;5113377;28;20128;-62
2022/08/14 12:09:32;;;;;;;3.50;3.20;;;;;;;38.88;29.04;99149.34;5112955;28;20492;-63
2022/08/14 12:12:01;;;;;;;4.60;3.17;;;;;;;39.10;29.09;99146.91;5095014;28;20044;-62
2022/08/14 12:14:27;;;;;;;3.17;2.97;;;;;;;39.36;28.34;99132.81;5095127;28;20056;-61
2022/08/14 12:17:07;;;;;;;4.57;3.20;;;;;;;39.64;27.38;99137.69;5113051;28;20122;-63
2022/08/14 12:19:49;;;;;;;3.70;3.40;;;;;;;39.87;28.92;99140.66;5112722;28;20051;-62
2022/08/14 12:22:34;;;;;;;4.70;3.10;;;;;;;40.11;27.90;99137.00;5094979;28;20048;-61
2022/08/14 12:25:02;;;;;;;3.42;3.13;;;;;;;40.43;27.67;99129.06;5113058;28;20036;-62
2022/08/14 12:27:38;;;;;;;3.70;3.38;;;;;;;40.74;27.02;99122.97;5095778;28;20048;-62
2022/08/14 12:30:11;;;;;;;4.05;3.05;;;;;;;41.09;26.45;99115.09;5112472;28;20112;-63